sensor_id;sensor_type;location;lat;lon;timestamp;P1;durP1;ratioP1;P2;durP2;ratioP2
69878;SDS011;57161;43.136;24.706;2023-07-24T00:02:13;10.38;;;7.60;;
69878;SDS011;57161;43.136;24.706;2023-07-24T00:04:39;10.13;;;7.53;;
69878;SDS011;57161;43.136;24.706;2023-07-24T00:07:05;9.63;;;7.53;;
69878;SDS011;57161;43.136;24.706;2023-07-24T00:09:30;11.18;;;7.40;;
69878;SDS011;57161;43.136;24.706;2023-07-24T00:11:56;11.93;;;7.70;;
69878;SDS011;57161;43.136;24.706;2023-07-24T00:14:21;8.90;;;7.68;;
69878;SDS011;57161;43.136;24.706;2023-07-24T00:16:47;10.75;;;7.53;;
69878;SDS011;57161;43.136;24.706;2023-07-24T00:19:12;12.27;;;7.88;;
69878;SDS011;57161;43.136;24.706;2023-07-24T00:21:38;9.85;;;7.68;;
69878;SDS011;57161;43.136;24.706;2023-07-24T00:24:03;10.32;;;7.50;;
69878;SDS011;57161;43.136;24.706;2023-07-24T00:26:29;10.80;;;7.82;;
69878;SDS011;57161;43.136;24.706;2023-07-24T00:28:54;10.60;;;7.60;;
69878;SDS011;57161;43.136;24.706;2023-07-24T00:31:20;12.48;;;7.60;;
69878;SDS011;57161;43.136;24.706;2023-07-24T00:33:45;10.23;;;8.10;;
69878;SDS011;57161;43.136;24.706;2023-07-24T00:36:11;9.88;;;7.45;;
69878;SDS011;57161;43.136;24.706;2023-07-24T00:38:36;11.77;;;7.72;;
69878;SDS011;57161;43.136;24.706;2023-07-24T00:41:02;9.68;;;7.40;;
69878;SDS011;57161;43.136;24.706;2023-07-24T00:43:27;11.35;;;8.20;;
69878;SDS011;57161;43.136;24.706;2023-07-24T00:45:52;10.88;;;7.82;;
69878;SDS011;57161;43.136;24.706;2023-07-24T00:48:20;9.52;;;7.43;;
69878;SDS011;57161;43.136;24.706;2023-07-24T00:50:46;12.52;;;7.60;;
69878;SDS011;57161;43.136;24.706;2023-07-24T00:53:12;12.38;;;7.78;;
69878;SDS011;57161;43.136;24.706;2023-07-24T00:55:39;9.20;;;7.38;;
69878;SDS011;57161;43.136;24.706;2023-07-24T00:58:06;10.82;;;7.95;;
69878;SDS011;57161;43.136;24.706;2023-07-24T01:00:32;11.80;;;7.40;;
69878;SDS011;57161;43.136;24.706;2023-07-24T01:02:59;9.00;;;7.47;;
69878;SDS011;57161;43.136;24.706;2023-07-24T01:05:25;9.77;;;7.53;;
69878;SDS011;57161;43.136;24.706;2023-07-24T01:07:51;10.07;;;7.22;;
69878;SDS011;57161;43.136;24.706;2023-07-24T01:10:17;9.30;;;7.45;;
69878;SDS011;57161;43.136;24.706;2023-07-24T01:15:40;10.85;;;7.75;;
69878;SDS011;57161;43.136;24.706;2023-07-24T01:18:10;11.50;;;7.93;;
69878;SDS011;57161;43.136;24.706;2023-07-24T01:20:40;10.18;;;7.80;;
69878;SDS011;57161;43.136;24.706;2023-07-24T01:26:00;9.98;;;8.00;;
69878;SDS011;57161;43.136;24.706;2023-07-24T01:28:28;10.40;;;7.88;;
69878;SDS011;57161;43.136;24.706;2023-07-24T01:30:54;10.07;;;7.60;;
69878;SDS011;57161;43.136;24.706;2023-07-24T01:33:20;9.55;;;7.82;;
69878;SDS011;57161;43.136;24.706;2023-07-24T01:35:48;12.00;;;8.25;;
69878;SDS011;57161;43.136;24.706;2023-07-24T01:38:19;12.05;;;8.13;;
69878;SDS011;57161;43.136;24.706;2023-07-24T01:40:49;10.55;;;7.38;;
69878;SDS011;57161;43.136;24.706;2023-07-24T01:43:15;10.45;;;7.60;;
69878;SDS011;57161;43.136;24.706;2023-07-24T01:45:40;11.15;;;7.80;;
69878;SDS011;57161;43.136;24.706;2023-07-24T01:48:06;12.68;;;8.43;;
69878;SDS011;57161;43.136;24.706;2023-07-24T01:50:31;11.20;;;8.10;;
69878;SDS011;57161;43.136;24.706;2023-07-24T01:52:57;11.82;;;8.20;;
69878;SDS011;57161;43.136;24.706;2023-07-24T01:55:23;9.38;;;7.10;;
69878;SDS011;57161;43.136;24.706;2023-07-24T01:57:48;12.30;;;7.97;;
69878;SDS011;57161;43.136;24.706;2023-07-24T02:00:14;10.68;;;7.82;;
69878;SDS011;57161;43.136;24.706;2023-07-24T02:02:40;10.43;;;7.60;;
69878;SDS011;57161;43.136;24.706;2023-07-24T02:05:05;9.73;;;7.43;;
69878;SDS011;57161;43.136;24.706;2023-07-24T02:07:31;9.95;;;7.80;;
69878;SDS011;57161;43.136;24.706;2023-07-24T02:09:56;10.93;;;7.53;;
69878;SDS011;57161;43.136;24.706;2023-07-24T02:12:21;10.15;;;7.53;;
69878;SDS011;57161;43.136;24.706;2023-07-24T02:14:47;13.50;;;8.48;;
69878;SDS011;57161;43.136;24.706;2023-07-24T02:17:16;10.23;;;7.47;;
69878;SDS011;57161;43.136;24.706;2023-07-24T02:19:42;10.80;;;8.23;;
69878;SDS011;57161;43.136;24.706;2023-07-24T02:22:08;11.52;;;8.20;;
69878;SDS011;57161;43.136;24.706;2023-07-24T02:24:33;14.20;;;7.85;;
69878;SDS011;57161;43.136;24.706;2023-07-24T02:26:58;10.60;;;7.93;;
69878;SDS011;57161;43.136;24.706;2023-07-24T02:29:25;10.25;;;7.57;;
69878;SDS011;57161;43.136;24.706;2023-07-24T02:31:51;11.95;;;7.88;;
69878;SDS011;57161;43.136;24.706;2023-07-24T02:34:18;12.27;;;7.53;;
69878;SDS011;57161;43.136;24.706;2023-07-24T02:36:43;12.10;;;7.55;;
69878;SDS011;57161;43.136;24.706;2023-07-24T02:39:09;10.73;;;7.75;;
69878;SDS011;57161;43.136;24.706;2023-07-24T02:41:35;10.27;;;8.20;;
69878;SDS011;57161;43.136;24.706;2023-07-24T02:44:02;12.40;;;8.43;;
69878;SDS011;57161;43.136;24.706;2023-07-24T02:46:28;9.00;;;7.82;;
69878;SDS011;57161;43.136;24.706;2023-07-24T02:48:55;10.27;;;7.97;;
69878;SDS011;57161;43.136;24.706;2023-07-24T02:51:21;10.02;;;7.30;;
69878;SDS011;57161;43.136;24.706;2023-07-24T02:53:46;11.32;;;8.48;;
69878;SDS011;57161;43.136;24.706;2023-07-24T02:56:12;10.93;;;8.00;;
69878;SDS011;57161;43.136;24.706;2023-07-24T02:58:37;10.90;;;8.23;;
69878;SDS011;57161;43.136;24.706;2023-07-24T03:01:06;9.63;;;7.88;;
69878;SDS011;57161;43.136;24.706;2023-07-24T03:03:35;11.18;;;8.43;;
69878;SDS011;57161;43.136;24.706;2023-07-24T03:06:01;9.30;;;8.00;;
69878;SDS011;57161;43.136;24.706;2023-07-24T03:08:26;11.38;;;7.75;;
69878;SDS011;57161;43.136;24.706;2023-07-24T03:10:52;11.02;;;7.97;;
69878;SDS011;57161;43.136;24.706;2023-07-24T03:13:17;9.95;;;7.85;;
69878;SDS011;57161;43.136;24.706;2023-07-24T03:15:43;10.60;;;7.97;;
69878;SDS011;57161;43.136;24.706;2023-07-24T03:18:08;12.95;;;8.43;;
69878;SDS011;57161;43.136;24.706;2023-07-24T03:20:33;11.80;;;8.02;;
69878;SDS011;57161;43.136;24.706;2023-07-24T03:22:59;10.57;;;7.88;;
69878;SDS011;57161;43.136;24.706;2023-07-24T03:25:24;11.05;;;7.72;;
69878;SDS011;57161;43.136;24.706;2023-07-24T03:27:50;11.50;;;8.18;;
69878;SDS011;57161;43.136;24.706;2023-07-24T03:30:15;13.15;;;7.97;;
69878;SDS011;57161;43.136;24.706;2023-07-24T03:32:41;11.70;;;7.70;;
69878;SDS011;57161;43.136;24.706;2023-07-24T03:35:06;11.73;;;7.78;;
69878;SDS011;57161;43.136;24.706;2023-07-24T03:37:33;9.73;;;7.60;;
69878;SDS011;57161;43.136;24.706;2023-07-24T03:39:59;8.13;;;6.97;;
69878;SDS011;57161;43.136;24.706;2023-07-24T03:42:30;10.10;;;7.43;;
69878;SDS011;57161;43.136;24.706;2023-07-24T03:44:56;9.60;;;7.72;;
69878;SDS011;57161;43.136;24.706;2023-07-24T03:47:22;12.68;;;8.07;;
69878;SDS011;57161;43.136;24.706;2023-07-24T03:49:48;10.35;;;7.70;;
69878;SDS011;57161;43.136;24.706;2023-07-24T03:52:14;11.43;;;7.53;;
69878;SDS011;57161;43.136;24.706;2023-07-24T03:54:40;10.88;;;7.88;;
69878;SDS011;57161;43.136;24.706;2023-07-24T03:57:05;11.60;;;7.75;;
69878;SDS011;57161;43.136;24.706;2023-07-24T03:59:31;10.20;;;7.30;;
69878;SDS011;57161;43.136;24.706;2023-07-24T04:01:57;10.85;;;7.75;;
69878;SDS011;57161;43.136;24.706;2023-07-24T04:04:23;10.43;;;8.15;;
69878;SDS011;57161;43.136;24.706;2023-07-24T04:06:48;9.00;;;7.20;;
69878;SDS011;57161;43.136;24.706;2023-07-24T04:09:14;14.38;;;7.60;;
69878;SDS011;57161;43.136;24.706;2023-07-24T04:11:40;9.98;;;7.13;;
69878;SDS011;57161;43.136;24.706;2023-07-24T04:14:06;11.30;;;7.63;;
69878;SDS011;57161;43.136;24.706;2023-07-24T04:16:32;11.82;;;7.25;;
69878;SDS011;57161;43.136;24.706;2023-07-24T04:18:57;9.70;;;7.57;;
69878;SDS011;57161;43.136;24.706;2023-07-24T04:21:23;12.48;;;7.78;;
69878;SDS011;57161;43.136;24.706;2023-07-24T04:23:48;10.77;;;7.05;;
69878;SDS011;57161;43.136;24.706;2023-07-24T04:26:14;11.98;;;7.55;;
69878;SDS011;57161;43.136;24.706;2023-07-24T04:28:39;12.65;;;7.28;;
69878;SDS011;57161;43.136;24.706;2023-07-24T04:31:04;10.63;;;7.28;;
69878;SDS011;57161;43.136;24.706;2023-07-24T04:33:30;9.52;;;7.75;;
69878;SDS011;57161;43.136;24.706;2023-07-24T04:35:55;9.43;;;6.93;;
69878;SDS011;57161;43.136;24.706;2023-07-24T04:38:21;13.32;;;7.63;;
69878;SDS011;57161;43.136;24.706;2023-07-24T04:40:47;10.27;;;7.35;;
69878;SDS011;57161;43.136;24.706;2023-07-24T04:43:12;9.82;;;7.30;;
69878;SDS011;57161;43.136;24.706;2023-07-24T04:45:38;10.15;;;7.28;;
69878;SDS011;57161;43.136;24.706;2023-07-24T04:48:03;8.70;;;6.80;;
69878;SDS011;57161;43.136;24.706;2023-07-24T04:50:29;8.50;;;6.85;;
69878;SDS011;57161;43.136;24.706;2023-07-24T04:52:55;10.93;;;6.93;;
69878;SDS011;57161;43.136;24.706;2023-07-24T04:55:23;11.55;;;7.13;;
69878;SDS011;57161;43.136;24.706;2023-07-24T04:57:48;7.78;;;6.28;;
69878;SDS011;57161;43.136;24.706;2023-07-24T05:00:14;8.63;;;6.45;;
69878;SDS011;57161;43.136;24.706;2023-07-24T05:02:42;9.38;;;6.50;;
69878;SDS011;57161;43.136;24.706;2023-07-24T05:05:08;8.88;;;6.78;;
69878;SDS011;57161;43.136;24.706;2023-07-24T05:10:06;11.80;;;6.82;;
69878;SDS011;57161;43.136;24.706;2023-07-24T05:12:32;10.27;;;6.63;;
69878;SDS011;57161;43.136;24.706;2023-07-24T05:14:57;7.70;;;6.20;;
69878;SDS011;57161;43.136;24.706;2023-07-24T05:17:23;7.57;;;6.45;;
69878;SDS011;57161;43.136;24.706;2023-07-24T05:19:49;13.20;;;7.35;;
69878;SDS011;57161;43.136;24.706;2023-07-24T05:22:15;8.57;;;6.30;;
69878;SDS011;57161;43.136;24.706;2023-07-24T05:24:40;10.27;;;6.85;;
69878;SDS011;57161;43.136;24.706;2023-07-24T05:27:06;10.82;;;6.60;;
69878;SDS011;57161;43.136;24.706;2023-07-24T05:29:37;7.68;;;6.30;;
69878;SDS011;57161;43.136;24.706;2023-07-24T05:32:03;11.10;;;6.55;;
69878;SDS011;57161;43.136;24.706;2023-07-24T05:34:29;9.35;;;6.72;;
69878;SDS011;57161;43.136;24.706;2023-07-24T05:36:54;12.18;;;6.45;;
69878;SDS011;57161;43.136;24.706;2023-07-24T05:39:20;9.20;;;6.28;;
69878;SDS011;57161;43.136;24.706;2023-07-24T05:41:46;9.30;;;6.20;;
69878;SDS011;57161;43.136;24.706;2023-07-24T06:07:38;8.50;;;5.72;;
69878;SDS011;57161;43.136;24.706;2023-07-24T06:23:26;18.63;;;6.10;;
69878;SDS011;57161;43.136;24.706;2023-07-24T06:49:23;7.10;;;5.18;;
69878;SDS011;57161;43.136;24.706;2023-07-24T06:51:55;6.15;;;5.28;;
69878;SDS011;57161;43.136;24.706;2023-07-24T06:54:32;9.05;;;5.60;;
69878;SDS011;57161;43.136;24.706;2023-07-24T06:57:11;6.43;;;5.38;;
69878;SDS011;57161;43.136;24.706;2023-07-24T06:59:36;8.27;;;5.53;;
69878;SDS011;57161;43.136;24.706;2023-07-24T07:02:05;7.55;;;5.55;;
69878;SDS011;57161;43.136;24.706;2023-07-24T07:04:30;7.93;;;5.50;;
69878;SDS011;57161;43.136;24.706;2023-07-24T07:06:56;8.60;;;5.25;;
69878;SDS011;57161;43.136;24.706;2023-07-24T07:09:25;7.80;;;5.60;;
69878;SDS011;57161;43.136;24.706;2023-07-24T07:11:51;6.68;;;5.30;;
69878;SDS011;57161;43.136;24.706;2023-07-24T07:14:17;8.43;;;5.60;;
69878;SDS011;57161;43.136;24.706;2023-07-24T07:16:43;6.95;;;5.40;;
69878;SDS011;57161;43.136;24.706;2023-07-24T07:19:12;6.05;;;5.20;;
69878;SDS011;57161;43.136;24.706;2023-07-24T07:21:44;6.90;;;5.53;;
69878;SDS011;57161;43.136;24.706;2023-07-24T07:24:12;5.70;;;5.10;;
69878;SDS011;57161;43.136;24.706;2023-07-24T07:26:38;6.63;;;5.25;;
69878;SDS011;57161;43.136;24.706;2023-07-24T07:29:04;7.35;;;5.80;;
69878;SDS011;57161;43.136;24.706;2023-07-24T07:31:30;8.55;;;5.22;;
69878;SDS011;57161;43.136;24.706;2023-07-24T07:33:56;6.15;;;5.47;;
69878;SDS011;57161;43.136;24.706;2023-07-24T07:36:24;6.88;;;5.70;;
69878;SDS011;57161;43.136;24.706;2023-07-24T07:38:52;5.95;;;5.35;;
69878;SDS011;57161;43.136;24.706;2023-07-24T07:41:24;7.93;;;5.72;;
69878;SDS011;57161;43.136;24.706;2023-07-24T07:43:52;7.15;;;5.43;;
69878;SDS011;57161;43.136;24.706;2023-07-24T07:46:19;6.95;;;4.80;;
69878;SDS011;57161;43.136;24.706;2023-07-24T07:48:49;7.95;;;5.70;;
69878;SDS011;57161;43.136;24.706;2023-07-24T07:51:18;5.68;;;5.03;;
69878;SDS011;57161;43.136;24.706;2023-07-24T07:54:11;6.47;;;4.70;;
69878;SDS011;57161;43.136;24.706;2023-07-24T07:56:39;5.53;;;4.90;;
69878;SDS011;57161;43.136;24.706;2023-07-24T07:59:23;5.93;;;5.07;;
69878;SDS011;57161;43.136;24.706;2023-07-24T08:01:50;7.07;;;4.53;;
69878;SDS011;57161;43.136;24.706;2023-07-24T08:04:31;6.05;;;4.57;;
69878;SDS011;57161;43.136;24.706;2023-07-24T08:06:58;5.75;;;5.15;;
69878;SDS011;57161;43.136;24.706;2023-07-24T08:09:28;6.90;;;5.15;;
69878;SDS011;57161;43.136;24.706;2023-07-24T08:12:00;5.70;;;5.10;;
69878;SDS011;57161;43.136;24.706;2023-07-24T08:14:28;6.82;;;5.28;;
69878;SDS011;57161;43.136;24.706;2023-07-24T08:16:58;6.43;;;5.10;;
69878;SDS011;57161;43.136;24.706;2023-07-24T08:19:38;6.60;;;4.78;;
69878;SDS011;57161;43.136;24.706;2023-07-24T08:22:06;7.03;;;4.97;;
69878;SDS011;57161;43.136;24.706;2023-07-24T08:24:39;5.85;;;4.97;;
69878;SDS011;57161;43.136;24.706;2023-07-24T08:27:11;6.57;;;5.38;;
69878;SDS011;57161;43.136;24.706;2023-07-24T08:29:45;10.40;;;5.45;;
69878;SDS011;57161;43.136;24.706;2023-07-24T08:32:21;5.78;;;4.82;;
69878;SDS011;57161;43.136;24.706;2023-07-24T08:35:08;6.60;;;5.37;;
69878;SDS011;57161;43.136;24.706;2023-07-24T08:37:35;6.05;;;4.80;;
69878;SDS011;57161;43.136;24.706;2023-07-24T08:40:09;6.45;;;4.90;;
69878;SDS011;57161;43.136;24.706;2023-07-24T08:42:42;5.18;;;4.45;;
69878;SDS011;57161;43.136;24.706;2023-07-24T08:45:18;7.38;;;5.00;;
69878;SDS011;57161;43.136;24.706;2023-07-24T08:48:02;5.32;;;4.75;;
69878;SDS011;57161;43.136;24.706;2023-07-24T08:50:59;5.45;;;4.78;;
69878;SDS011;57161;43.136;24.706;2023-07-24T08:53:26;9.90;;;5.43;;
69878;SDS011;57161;43.136;24.706;2023-07-24T08:55:56;10.25;;;4.63;;
69878;SDS011;57161;43.136;24.706;2023-07-24T08:58:24;5.60;;;4.85;;
69878;SDS011;57161;43.136;24.706;2023-07-24T09:00:58;5.00;;;4.50;;
69878;SDS011;57161;43.136;24.706;2023-07-24T09:03:27;5.05;;;4.55;;
69878;SDS011;57161;43.136;24.706;2023-07-24T09:05:54;5.20;;;4.38;;
69878;SDS011;57161;43.136;24.706;2023-07-24T09:08:38;7.75;;;4.57;;
69878;SDS011;57161;43.136;24.706;2023-07-24T09:11:19;5.30;;;4.70;;
69878;SDS011;57161;43.136;24.706;2023-07-24T09:14:00;5.80;;;4.65;;
69878;SDS011;57161;43.136;24.706;2023-07-24T09:16:41;16.20;;;5.05;;
69878;SDS011;57161;43.136;24.706;2023-07-24T09:19:19;7.30;;;4.78;;
69878;SDS011;57161;43.136;24.706;2023-07-24T09:21:49;7.97;;;4.68;;
69878;SDS011;57161;43.136;24.706;2023-07-24T09:24:17;4.88;;;4.35;;
69878;SDS011;57161;43.136;24.706;2023-07-24T09:29:40;4.82;;;4.30;;
69878;SDS011;57161;43.136;24.706;2023-07-24T09:32:07;5.22;;;4.13;;
69878;SDS011;57161;43.136;24.706;2023-07-24T09:34:33;5.30;;;3.97;;
69878;SDS011;57161;43.136;24.706;2023-07-24T09:37:04;4.57;;;4.18;;
69878;SDS011;57161;43.136;24.706;2023-07-24T09:39:30;6.00;;;4.95;;
69878;SDS011;57161;43.136;24.706;2023-07-24T09:42:04;4.75;;;4.30;;
69878;SDS011;57161;43.136;24.706;2023-07-24T09:44:30;4.53;;;4.13;;
69878;SDS011;57161;43.136;24.706;2023-07-24T09:46:58;16.98;;;5.07;;
69878;SDS011;57161;43.136;24.706;2023-07-24T09:49:23;5.07;;;4.57;;
69878;SDS011;57161;43.136;24.706;2023-07-24T09:51:49;5.32;;;4.30;;
69878;SDS011;57161;43.136;24.706;2023-07-24T09:54:22;6.13;;;4.20;;
69878;SDS011;57161;43.136;24.706;2023-07-24T09:56:53;5.50;;;4.60;;
69878;SDS011;57161;43.136;24.706;2023-07-24T09:59:20;6.25;;;4.20;;
69878;SDS011;57161;43.136;24.706;2023-07-24T10:01:47;4.95;;;4.45;;
69878;SDS011;57161;43.136;24.706;2023-07-24T10:04:12;4.97;;;4.47;;
69878;SDS011;57161;43.136;24.706;2023-07-24T10:06:40;7.75;;;4.75;;
69878;SDS011;57161;43.136;24.706;2023-07-24T10:09:08;7.15;;;4.47;;
69878;SDS011;57161;43.136;24.706;2023-07-24T10:11:36;5.03;;;4.30;;
69878;SDS011;57161;43.136;24.706;2023-07-24T10:14:07;6.97;;;4.35;;
69878;SDS011;57161;43.136;24.706;2023-07-24T10:16:35;5.38;;;4.43;;
69878;SDS011;57161;43.136;24.706;2023-07-24T10:19:00;5.47;;;4.75;;
69878;SDS011;57161;43.136;24.706;2023-07-24T10:21:27;5.43;;;4.65;;
69878;SDS011;57161;43.136;24.706;2023-07-24T10:24:00;6.38;;;4.82;;
69878;SDS011;57161;43.136;24.706;2023-07-24T10:26:26;6.75;;;5.07;;
69878;SDS011;57161;43.136;24.706;2023-07-24T10:28:53;6.65;;;5.63;;
69878;SDS011;57161;43.136;24.706;2023-07-24T10:31:23;6.10;;;5.05;;
69878;SDS011;57161;43.136;24.706;2023-07-24T10:33:54;6.25;;;5.05;;
69878;SDS011;57161;43.136;24.706;2023-07-24T10:36:21;6.82;;;5.13;;
69878;SDS011;57161;43.136;24.706;2023-07-24T10:38:55;6.70;;;5.28;;
69878;SDS011;57161;43.136;24.706;2023-07-24T10:41:21;5.95;;;5.30;;
69878;SDS011;57161;43.136;24.706;2023-07-24T10:43:47;7.07;;;5.10;;
69878;SDS011;57161;43.136;24.706;2023-07-24T10:46:15;6.88;;;5.10;;
69878;SDS011;57161;43.136;24.706;2023-07-24T10:48:43;7.07;;;5.40;;
69878;SDS011;57161;43.136;24.706;2023-07-24T10:51:10;7.43;;;5.60;;
69878;SDS011;57161;43.136;24.706;2023-07-24T10:53:36;6.32;;;5.32;;
69878;SDS011;57161;43.136;24.706;2023-07-24T10:56:03;6.78;;;5.05;;
69878;SDS011;57161;43.136;24.706;2023-07-24T10:58:32;8.55;;;5.47;;
69878;SDS011;57161;43.136;24.706;2023-07-24T11:00:59;11.25;;;5.60;;
69878;SDS011;57161;43.136;24.706;2023-07-24T11:03:25;7.95;;;6.13;;
69878;SDS011;57161;43.136;24.706;2023-07-24T11:05:51;7.28;;;5.55;;
69878;SDS011;57161;43.136;24.706;2023-07-24T11:08:18;6.88;;;5.70;;
69878;SDS011;57161;43.136;24.706;2023-07-24T11:10:45;7.05;;;5.38;;
69878;SDS011;57161;43.136;24.706;2023-07-24T11:13:15;6.93;;;5.30;;
69878;SDS011;57161;43.136;24.706;2023-07-24T11:15:41;8.23;;;5.85;;
69878;SDS011;57161;43.136;24.706;2023-07-24T11:18:07;7.57;;;5.72;;
69878;SDS011;57161;43.136;24.706;2023-07-24T11:23:28;8.68;;;5.95;;
69878;SDS011;57161;43.136;24.706;2023-07-24T11:25:54;6.95;;;5.90;;
69878;SDS011;57161;43.136;24.706;2023-07-24T11:31:06;9.40;;;7.07;;
69878;SDS011;57161;43.136;24.706;2023-07-24T11:33:45;8.95;;;6.32;;
69878;SDS011;57161;43.136;24.706;2023-07-24T11:38:46;11.25;;;6.78;;
69878;SDS011;57161;43.136;24.706;2023-07-24T11:43:56;9.25;;;7.32;;
69878;SDS011;57161;43.136;24.706;2023-07-24T11:46:29;10.35;;;8.30;;
69878;SDS011;57161;43.136;24.706;2023-07-24T11:48:56;14.65;;;8.00;;
69878;SDS011;57161;43.136;24.706;2023-07-24T11:51:22;14.23;;;9.10;;
69878;SDS011;57161;43.136;24.706;2023-07-24T11:53:51;15.50;;;10.70;;
69878;SDS011;57161;43.136;24.706;2023-07-24T11:56:16;16.13;;;10.88;;
69878;SDS011;57161;43.136;24.706;2023-07-24T12:01:21;17.55;;;11.07;;
69878;SDS011;57161;43.136;24.706;2023-07-24T12:03:52;17.30;;;11.57;;
69878;SDS011;57161;43.136;24.706;2023-07-24T12:06:17;15.55;;;11.35;;
69878;SDS011;57161;43.136;24.706;2023-07-24T12:08:43;15.70;;;10.93;;
69878;SDS011;57161;43.136;24.706;2023-07-24T12:11:16;14.60;;;10.63;;
69878;SDS011;57161;43.136;24.706;2023-07-24T12:13:44;16.48;;;11.50;;
69878;SDS011;57161;43.136;24.706;2023-07-24T12:16:10;14.60;;;10.70;;
69878;SDS011;57161;43.136;24.706;2023-07-24T12:18:36;15.57;;;11.05;;
69878;SDS011;57161;43.136;24.706;2023-07-24T12:21:17;16.90;;;11.27;;
69878;SDS011;57161;43.136;24.706;2023-07-24T12:23:43;17.67;;;10.98;;
69878;SDS011;57161;43.136;24.706;2023-07-24T12:26:08;12.32;;;9.75;;
69878;SDS011;57161;43.136;24.706;2023-07-24T12:28:37;13.20;;;9.90;;
69878;SDS011;57161;43.136;24.706;2023-07-24T12:31:02;16.33;;;10.73;;
69878;SDS011;57161;43.136;24.706;2023-07-24T12:33:28;13.73;;;10.38;;
69878;SDS011;57161;43.136;24.706;2023-07-24T12:35:55;16.48;;;10.02;;
69878;SDS011;57161;43.136;24.706;2023-07-24T12:38:21;15.75;;;10.93;;
69878;SDS011;57161;43.136;24.706;2023-07-24T12:40:49;15.32;;;10.85;;
69878;SDS011;57161;43.136;24.706;2023-07-24T12:43:15;13.32;;;10.13;;
69878;SDS011;57161;43.136;24.706;2023-07-24T12:45:40;18.33;;;12.18;;
69878;SDS011;57161;43.136;24.706;2023-07-24T12:48:06;16.33;;;11.93;;
69878;SDS011;57161;43.136;24.706;2023-07-24T12:50:32;17.95;;;11.48;;
69878;SDS011;57161;43.136;24.706;2023-07-24T12:52:58;18.13;;;11.90;;
69878;SDS011;57161;43.136;24.706;2023-07-24T12:55:24;16.90;;;10.93;;
69878;SDS011;57161;43.136;24.706;2023-07-24T12:57:49;16.88;;;11.48;;
69878;SDS011;57161;43.136;24.706;2023-07-24T13:00:15;16.17;;;11.75;;
69878;SDS011;57161;43.136;24.706;2023-07-24T13:02:40;16.23;;;12.10;;
69878;SDS011;57161;43.136;24.706;2023-07-24T13:05:06;16.10;;;11.77;;
69878;SDS011;57161;43.136;24.706;2023-07-24T13:07:31;18.40;;;11.70;;
69878;SDS011;57161;43.136;24.706;2023-07-24T13:09:57;17.30;;;11.95;;
69878;SDS011;57161;43.136;24.706;2023-07-24T13:12:22;16.00;;;11.45;;
69878;SDS011;57161;43.136;24.706;2023-07-24T13:14:48;17.73;;;11.32;;
69878;SDS011;57161;43.136;24.706;2023-07-24T13:17:13;17.25;;;11.25;;
69878;SDS011;57161;43.136;24.706;2023-07-24T13:19:41;17.10;;;11.48;;
69878;SDS011;57161;43.136;24.706;2023-07-24T13:22:13;16.13;;;11.07;;
69878;SDS011;57161;43.136;24.706;2023-07-24T13:24:40;19.05;;;11.07;;
69878;SDS011;57161;43.136;24.706;2023-07-24T13:32:15;16.00;;;10.73;;
69878;SDS011;57161;43.136;24.706;2023-07-24T13:34:43;15.02;;;11.35;;
69878;SDS011;57161;43.136;24.706;2023-07-24T13:37:09;14.75;;;11.18;;
69878;SDS011;57161;43.136;24.706;2023-07-24T13:39:35;15.52;;;10.00;;
69878;SDS011;57161;43.136;24.706;2023-07-24T13:52:34;13.02;;;9.70;;
69878;SDS011;57161;43.136;24.706;2023-07-24T13:55:04;15.57;;;10.05;;
69878;SDS011;57161;43.136;24.706;2023-07-24T13:57:29;16.92;;;10.30;;
69878;SDS011;57161;43.136;24.706;2023-07-24T14:00:02;14.43;;;10.15;;
69878;SDS011;57161;43.136;24.706;2023-07-24T14:24:05;13.10;;;9.55;;
69878;SDS011;57161;43.136;24.706;2023-07-24T15:05:07;12.55;;;9.65;;
69878;SDS011;57161;43.136;24.706;2023-07-24T15:15:37;16.30;;;10.30;;
69878;SDS011;57161;43.136;24.706;2023-07-24T15:20:43;15.13;;;11.10;;
69878;SDS011;57161;43.136;24.706;2023-07-24T15:44:06;18.15;;;10.75;;
69878;SDS011;57161;43.136;24.706;2023-07-24T15:49:26;13.52;;;10.48;;
69878;SDS011;57161;43.136;24.706;2023-07-24T15:57:21;15.77;;;10.07;;
69878;SDS011;57161;43.136;24.706;2023-07-24T16:00:18;14.07;;;9.43;;
69878;SDS011;57161;43.136;24.706;2023-07-24T16:03:18;15.73;;;9.98;;
69878;SDS011;57161;43.136;24.706;2023-07-24T16:05:44;19.52;;;9.98;;
69878;SDS011;57161;43.136;24.706;2023-07-24T16:08:38;13.93;;;10.25;;
69878;SDS011;57161;43.136;24.706;2023-07-24T16:11:31;19.23;;;10.98;;
69878;SDS011;57161;43.136;24.706;2023-07-24T16:14:20;22.38;;;11.32;;
69878;SDS011;57161;43.136;24.706;2023-07-24T16:17:42;14.68;;;10.20;;
69878;SDS011;57161;43.136;24.706;2023-07-24T16:23:02;17.25;;;12.45;;
69878;SDS011;57161;43.136;24.706;2023-07-24T16:25:31;20.80;;;12.50;;
69878;SDS011;57161;43.136;24.706;2023-07-24T16:27:57;17.50;;;12.27;;
69878;SDS011;57161;43.136;24.706;2023-07-24T16:30:23;19.55;;;11.02;;
69878;SDS011;57161;43.136;24.706;2023-07-24T16:35:35;15.27;;;10.20;;
69878;SDS011;57161;43.136;24.706;2023-07-24T16:38:11;15.73;;;10.20;;
69878;SDS011;57161;43.136;24.706;2023-07-24T16:46:17;15.27;;;9.38;;
69878;SDS011;57161;43.136;24.706;2023-07-24T16:48:48;15.23;;;10.20;;
69878;SDS011;57161;43.136;24.706;2023-07-24T16:53:58;16.83;;;9.93;;
69878;SDS011;57161;43.136;24.706;2023-07-24T16:56:24;14.18;;;9.55;;
69878;SDS011;57161;43.136;24.706;2023-07-24T16:58:55;14.30;;;9.38;;
69878;SDS011;57161;43.136;24.706;2023-07-24T17:04:28;14.07;;;9.75;;
69878;SDS011;57161;43.136;24.706;2023-07-24T17:10:13;14.38;;;9.07;;
69878;SDS011;57161;43.136;24.706;2023-07-24T17:12:50;15.25;;;9.90;;
69878;SDS011;57161;43.136;24.706;2023-07-24T17:15:18;15.32;;;10.07;;
69878;SDS011;57161;43.136;24.706;2023-07-24T17:17:45;15.70;;;9.88;;
69878;SDS011;57161;43.136;24.706;2023-07-24T17:20:21;15.00;;;10.75;;
69878;SDS011;57161;43.136;24.706;2023-07-24T17:22:55;16.23;;;9.98;;
69878;SDS011;57161;43.136;24.706;2023-07-24T17:31:27;20.10;;;10.05;;
69878;SDS011;57161;43.136;24.706;2023-07-24T17:36:29;17.33;;;9.98;;
69878;SDS011;57161;43.136;24.706;2023-07-24T17:38:55;15.50;;;9.27;;
69878;SDS011;57161;43.136;24.706;2023-07-24T17:41:25;15.90;;;9.95;;
69878;SDS011;57161;43.136;24.706;2023-07-24T17:43:52;13.15;;;9.25;;
69878;SDS011;57161;43.136;24.706;2023-07-24T17:46:21;14.07;;;9.57;;
69878;SDS011;57161;43.136;24.706;2023-07-24T17:48:46;14.20;;;9.27;;
69878;SDS011;57161;43.136;24.706;2023-07-24T17:53:45;15.48;;;10.18;;
69878;SDS011;57161;43.136;24.706;2023-07-24T17:59:03;15.82;;;10.30;;
69878;SDS011;57161;43.136;24.706;2023-07-24T18:01:35;14.57;;;10.35;;
69878;SDS011;57161;43.136;24.706;2023-07-24T18:04:05;14.45;;;10.25;;
69878;SDS011;57161;43.136;24.706;2023-07-24T18:06:46;14.50;;;9.57;;
69878;SDS011;57161;43.136;24.706;2023-07-24T18:09:25;14.57;;;10.10;;
69878;SDS011;57161;43.136;24.706;2023-07-24T18:14:57;19.42;;;10.18;;
69878;SDS011;57161;43.136;24.706;2023-07-24T18:17:35;22.70;;;9.65;;
69878;SDS011;57161;43.136;24.706;2023-07-24T18:20:02;17.67;;;9.80;;
69878;SDS011;57161;43.136;24.706;2023-07-24T18:25:16;14.35;;;9.25;;
69878;SDS011;57161;43.136;24.706;2023-07-24T18:27:42;14.77;;;9.50;;
69878;SDS011;57161;43.136;24.706;2023-07-24T18:33:00;16.70;;;9.35;;
69878;SDS011;57161;43.136;24.706;2023-07-24T18:38:21;15.43;;;11.20;;